Time;durP1;ratioP1;P1;durP2;ratioP2;P2;SDS_P1;SDS_P2;PMS_P1;PMS_P2;Temp;Humidity;BMP_temperature;BMP_pressure;BME280_temperature;BME280_humidity;BME280_pressure;Samples;Min_cycle;Max_cycle;Signal;HPM_P1;HPM_P2
2024/01/23 00:00:22;;;;;;;7.47;2.05;;;;;;;;;;4993705;28;20053;-83
2024/01/23 00:02:48;;;;;;;11.23;2.75;;;;;;;;;;4995167;28;20039;-82
2024/01/23 00:05:13;;;;;;;11.82;2.30;;;;;;;;;;4999232;28;20041;-82
2024/01/23 00:07:38;;;;;;;9.40;2.50;;;;;;;;;;4986062;28;20066;-84
2024/01/23 00:10:04;;;;;;;6.68;2.15;;;;;;;;;;5011680;28;20515;-81
2024/01/23 00:12:31;;;;;;;8.27;1.95;;;;;;;;;;5012077;28;20096;-84
2024/01/23 00:14:58;;;;;;;7.30;1.60;;;;;;;;;;5000199;28;20103;-84
2024/01/23 00:17:24;;;;;;;8.03;1.87;;;;;;;;;;5014694;28;20859;-83
2024/01/23 00:19:49;;;;;;;6.50;1.60;;;;;;;;;;5016899;28;20034;-82
2024/01/23 00:22:14;;;;;;;8.73;1.70;;;;;;;;;;5022870;28;20040;-83
2024/01/23 00:24:40;;;;;;;7.75;1.92;;;;;;;;;;5002298;28;20537;-83
2024/01/23 00:27:05;;;;;;;6.28;1.48;;;;;;;;;;5015296;28;20037;-81
2024/01/23 00:29:33;;;;;;;10.18;1.60;;;;;;;;;;5016951;28;20556;-82
2024/01/23 00:31:58;;;;;;;7.38;1.65;;;;;;;;;;5014963;28;20034;-83
2024/01/23 00:34:23;;;;;;;6.00;1.48;;;;;;;;;;5014120;28;20033;-85
2024/01/23 00:36:49;;;;;;;7.53;1.60;;;;;;;;;;4988335;28;20371;-82
2024/01/23 00:39:14;;;;;;;6.00;1.67;;;;;;;;;;4979183;28;20038;-82
2024/01/23 00:41:40;;;;;;;6.60;1.80;;;;;;;;;;4994442;28;20034;-82
2024/01/23 00:44:05;;;;;;;7.32;1.60;;;;;;;;;;4992120;28;20040;-84
2024/01/23 00:46:30;;;;;;;4.85;1.20;;;;;;;;;;4995089;28;20045;-83
2024/01/23 00:48:57;;;;;;;6.45;1.50;;;;;;;;;;4980590;28;20033;-83
2024/01/23 00:51:23;;;;;;;8.00;2.17;;;;;;;;;;5003471;28;20038;-80
2024/01/23 00:53:48;;;;;;;6.15;1.50;;;;;;;;;;4994837;28;20490;-82
2024/01/23 00:56:13;;;;;;;7.30;1.30;;;;;;;;;;4993991;28;20073;-83
2024/01/23 00:58:39;;;;;;;8.15;1.88;;;;;;;;;;4993158;28;20062;-82
2024/01/23 01:01:04;;;;;;;5.85;1.50;;;;;;;;;;5007654;28;20037;-81
2024/01/23 01:03:30;;;;;;;9.18;2.22;;;;;;;;;;5014441;28;20117;-82
2024/01/23 01:05:56;;;;;;;8.65;2.15;;;;;;;;;;5013264;28;20048;-82
2024/01/23 01:08:21;;;;;;;10.20;2.05;;;;;;;;;;5012603;28;20408;-82
2024/01/23 01:10:47;;;;;;;8.30;1.83;;;;;;;;;;5004040;28;20038;-81
2024/01/23 01:13:16;;;;;;;7.43;1.80;;;;;;;;;;4990497;28;20125;-81
2024/01/23 01:15:41;;;;;;;8.25;1.92;;;;;;;;;;5012290;28;20030;-82
2024/01/23 01:18:09;;;;;;;7.40;1.88;;;;;;;;;;5015338;28;20509;-84
2024/01/23 01:20:35;;;;;;;9.15;1.58;;;;;;;;;;5012025;28;20044;-83
2024/01/23 01:23:00;;;;;;;6.90;1.65;;;;;;;;;;5015906;28;20038;-85
2024/01/23 01:25:27;;;;;;;5.65;1.40;;;;;;;;;;5013996;28;20033;-83
2024/01/23 01:27:54;;;;;;;7.40;2.10;;;;;;;;;;5014090;28;20557;-82
2024/01/23 01:30:21;;;;;;;9.95;1.90;;;;;;;;;;5002075;28;20122;-85
2024/01/23 01:32:46;;;;;;;8.07;1.67;;;;;;;;;;5010522;28;20029;-82
2024/01/23 01:35:12;;;;;;;8.55;1.52;;;;;;;;;;5013252;28;20038;-83
2024/01/23 01:37:37;;;;;;;7.35;1.85;;;;;;;;;;5003887;28;20440;-82
2024/01/23 01:40:03;;;;;;;6.55;1.30;;;;;;;;;;5012794;28;20116;-83
2024/01/23 01:42:29;;;;;;;5.97;2.10;;;;;;;;;;4995206;28;20037;-83
2024/01/23 01:44:54;;;;;;;6.15;1.25;;;;;;;;;;4995625;28;20509;-83
2024/01/23 01:47:20;;;;;;;7.43;1.33;;;;;;;;;;4991739;28;20035;-82
2024/01/23 01:49:45;;;;;;;6.82;1.40;;;;;;;;;;4995868;28;20558;-83
2024/01/23 01:52:11;;;;;;;8.75;1.30;;;;;;;;;;5008044;28;20045;-81
2024/01/23 01:54:38;;;;;;;8.38;2.17;;;;;;;;;;5010322;28;20039;-83
2024/01/23 01:57:04;;;;;;;7.85;1.67;;;;;;;;;;5003888;28;20425;-79
2024/01/23 01:59:29;;;;;;;6.60;1.55;;;;;;;;;;5000163;28;20065;-82
2024/01/23 02:01:55;;;;;;;6.88;1.38;;;;;;;;;;4996670;28;20034;-82
2024/01/23 02:04:20;;;;;;;4.53;1.55;;;;;;;;;;4995566;28;20585;-82
2024/01/23 02:06:46;;;;;;;4.75;1.60;;;;;;;;;;4994990;28;20038;-82
2024/01/23 02:09:11;;;;;;;9.88;1.67;;;;;;;;;;4995209;28;20034;-82
2024/01/23 02:11:37;;;;;;;5.60;1.83;;;;;;;;;;5005483;28;20061;-83
2024/01/23 02:14:02;;;;;;;11.10;1.77;;;;;;;;;;5018125;28;20416;-83
2024/01/23 02:16:28;;;;;;;7.65;1.90;;;;;;;;;;5018258;28;20037;-83
2024/01/23 02:18:53;;;;;;;7.95;1.80;;;;;;;;;;4999449;28;20060;-83
2024/01/23 02:21:18;;;;;;;8.18;1.70;;;;;;;;;;5015063;28;20030;-83
2024/01/23 02:23:44;;;;;;;9.48;1.88;;;;;;;;;;5016251;28;20033;-82
2024/01/23 02:26:13;;;;;;;8.95;2.05;;;;;;;;;;4997299;28;20034;-82
2024/01/23 02:28:39;;;;;;;9.85;1.85;;;;;;;;;;5022352;28;20546;-82
2024/01/23 02:31:04;;;;;;;10.65;1.92;;;;;;;;;;5018037;28;20041;-81
2024/01/23 02:33:29;;;;;;;5.72;1.75;;;;;;;;;;5014611;28;20034;-82
2024/01/23 02:35:55;;;;;;;7.38;1.67;;;;;;;;;;5021731;28;20049;-83
2024/01/23 02:38:20;;;;;;;9.57;1.70;;;;;;;;;;4996263;28;21268;-83
2024/01/23 02:40:45;;;;;;;7.07;1.75;;;;;;;;;;4994579;28;20058;-82
2024/01/23 02:43:11;;;;;;;7.97;1.75;;;;;;;;;;5013278;28;20076;-83
2024/01/23 02:45:36;;;;;;;7.28;1.92;;;;;;;;;;5012959;28;20501;-83
2024/01/23 02:48:22;;;;;;;6.63;1.50;;;;;;;;;;4998642;28;20034;-83
2024/01/23 02:50:47;;;;;;;4.47;1.58;;;;;;;;;;4959888;28;20117;-83
2024/01/23 02:53:13;;;;;;;4.68;1.58;;;;;;;;;;4961115;28;20047;-83
2024/01/23 02:55:38;;;;;;;7.88;1.65;;;;;;;;;;4947446;28;20133;-83
2024/01/23 02:58:03;;;;;;;5.25;1.50;;;;;;;;;;4977384;28;20042;-82
2024/01/23 03:00:29;;;;;;;9.35;1.90;;;;;;;;;;4960137;28;20031;-83
2024/01/23 03:02:54;;;;;;;7.47;1.70;;;;;;;;;;4953980;28;20043;-82
2024/01/23 03:05:20;;;;;;;5.50;1.60;;;;;;;;;;4974393;28;20057;-83
2024/01/23 03:07:45;;;;;;;6.85;1.55;;;;;;;;;;4957141;28;20094;-83
2024/01/23 03:10:12;;;;;;;7.57;1.67;;;;;;;;;;4950895;28;20039;-82
2024/01/23 03:12:37;;;;;;;4.88;1.40;;;;;;;;;;4975267;28;20375;-82
2024/01/23 03:15:03;;;;;;;5.72;1.65;;;;;;;;;;4946282;28;20070;-83
2024/01/23 03:17:29;;;;;;;7.35;1.92;;;;;;;;;;4970448;28;20436;-82
2024/01/23 03:19:54;;;;;;;5.38;1.58;;;;;;;;;;4960778;28;20520;-83
2024/01/23 03:22:19;;;;;;;7.63;1.67;;;;;;;;;;4956579;28;20121;-82
2024/01/23 03:24:45;;;;;;;10.93;2.42;;;;;;;;;;4962187;28;20496;-82
2024/01/23 03:27:10;;;;;;;6.82;1.60;;;;;;;;;;4966981;28;20120;-82
2024/01/23 03:29:43;;;;;;;5.75;1.35;;;;;;;;;;4996259;28;20105;-83
2024/01/23 03:32:09;;;;;;;6.07;1.30;;;;;;;;;;5010397;28;20034;-83
2024/01/23 03:34:36;;;;;;;8.35;1.92;;;;;;;;;;4982496;28;20550;-82
2024/01/23 03:37:03;;;;;;;5.05;1.05;;;;;;;;;;4998953;28;20466;-83
2024/01/23 03:39:28;;;;;;;7.07;1.63;;;;;;;;;;4994416;28;20478;-84
2024/01/23 03:41:54;;;;;;;6.70;1.38;;;;;;;;;;4997276;28;20030;-82
2024/01/23 03:44:22;;;;;;;6.63;1.40;;;;;;;;;;4979846;28;20713;-82
2024/01/23 03:46:48;;;;;;;6.53;1.30;;;;;;;;;;4995886;28;20046;-82
2024/01/23 03:49:13;;;;;;;7.00;1.33;;;;;;;;;;4998726;28;20049;-82
2024/01/23 03:51:39;;;;;;;6.03;1.50;;;;;;;;;;5012838;28;20059;-83
2024/01/23 03:54:04;;;;;;;4.38;1.25;;;;;;;;;;5016186;28;20060;-83
2024/01/23 03:56:29;;;;;;;7.82;1.50;;;;;;;;;;5011664;28;20038;-83
2024/01/23 03:58:55;;;;;;;4.10;1.15;;;;;;;;;;5002494;28;20088;-83
2024/01/23 04:01:20;;;;;;;7.00;1.30;;;;;;;;;;5013497;28;20033;-82
2024/01/23 04:03:46;;;;;;;6.72;1.70;;;;;;;;;;5000214;28;20037;-82
2024/01/23 04:06:11;;;;;;;6.22;1.15;;;;;;;;;;4997806;28;20586;-82
2024/01/23 04:08:36;;;;;;;9.20;2.05;;;;;;;;;;5013106;28;20041;-82
2024/01/23 04:11:02;;;;;;;6.15;1.17;;;;;;;;;;5013240;28;20377;-82
2024/01/23 04:13:27;;;;;;;5.10;1.30;;;;;;;;;;4999089;28;20441;-83
2024/01/23 04:15:52;;;;;;;8.50;1.55;;;;;;;;;;4996367;28;20490;-82
2024/01/23 04:18:18;;;;;;;6.88;1.30;;;;;;;;;;5016141;28;20489;-83
2024/01/23 04:20:43;;;;;;;7.10;1.20;;;;;;;;;;5000402;28;20511;-82
2024/01/23 04:23:09;;;;;;;7.95;1.33;;;;;;;;;;5013274;28;20030;-83
2024/01/23 04:25:34;;;;;;;5.85;1.15;;;;;;;;;;5011955;28;20080;-83
2024/01/23 04:27:59;;;;;;;9.00;1.48;;;;;;;;;;5013241;28;20033;-82
2024/01/23 04:30:25;;;;;;;5.95;1.20;;;;;;;;;;5012344;28;20498;-82
2024/01/23 04:32:50;;;;;;;8.57;1.42;;;;;;;;;;5000072;28;20095;-83
2024/01/23 04:35:16;;;;;;;7.95;1.67;;;;;;;;;;5014972;28;20037;-82
2024/01/23 04:37:41;;;;;;;3.67;1.20;;;;;;;;;;4997905;28;20550;-83
2024/01/23 04:40:08;;;;;;;7.30;1.10;;;;;;;;;;5021398;28;20049;-83
2024/01/23 04:42:34;;;;;;;6.32;1.33;;;;;;;;;;5006376;28;20049;-82
2024/01/23 04:45:00;;;;;;;4.93;1.40;;;;;;;;;;4992786;28;20088;-83
2024/01/23 04:47:25;;;;;;;6.82;1.70;;;;;;;;;;5011194;28;20038;-82
2024/01/23 04:49:51;;;;;;;8.02;1.20;;;;;;;;;;5002015;28;20053;-83
2024/01/23 04:52:17;;;;;;;7.97;1.50;;;;;;;;;;5017305;28;20038;-83
2024/01/23 04:54:42;;;;;;;6.53;1.38;;;;;;;;;;5016042;28;20091;-82
2024/01/23 04:57:08;;;;;;;9.18;1.88;;;;;;;;;;5012086;28;20045;-82
2024/01/23 04:59:34;;;;;;;5.15;1.45;;;;;;;;;;5013408;28;20074;-81
2024/01/23 05:01:59;;;;;;;8.80;1.50;;;;;;;;;;4998345;28;20029;-82
2024/01/23 05:04:25;;;;;;;8.57;1.98;;;;;;;;;;5001049;28;20038;-82
2024/01/23 05:06:50;;;;;;;6.70;1.50;;;;;;;;;;5016746;28;20069;-83
2024/01/23 05:09:15;;;;;;;8.68;1.90;;;;;;;;;;5013800;28;20033;-81
2024/01/23 05:11:41;;;;;;;7.75;1.13;;;;;;;;;;5011683;28;20029;-82
2024/01/23 05:14:06;;;;;;;7.05;1.30;;;;;;;;;;5014192;28;20033;-81
2024/01/23 05:16:32;;;;;;;7.43;1.48;;;;;;;;;;5014242;28;20036;-82
2024/01/23 05:18:58;;;;;;;7.90;1.70;;;;;;;;;;5012992;28;20043;-84
2024/01/23 05:21:23;;;;;;;10.82;1.50;;;;;;;;;;5000281;28;20537;-85
2024/01/23 05:23:48;;;;;;;5.60;1.50;;;;;;;;;;5013357;28;20037;-83
2024/01/23 05:26:14;;;;;;;6.95;1.40;;;;;;;;;;5016604;28;20037;-84
2024/01/23 05:28:39;;;;;;;6.93;1.17;;;;;;;;;;5017892;28;20443;-83
2024/01/23 05:31:05;;;;;;;9.38;1.35;;;;;;;;;;5022519;28;20041;-84
2024/01/23 05:33:30;;;;;;;8.73;1.35;;;;;;;;;;5012347;28;20034;-85
2024/01/23 05:35:56;;;;;;;5.78;1.45;;;;;;;;;;5013597;28;20061;-84
2024/01/23 05:38:21;;;;;;;9.27;1.45;;;;;;;;;;5017276;28;20041;-83
2024/01/23 05:40:47;;;;;;;5.18;1.40;;;;;;;;;;5012675;28;20080;-84
2024/01/23 05:43:12;;;;;;;6.65;1.42;;;;;;;;;;5018687;28;20421;-84
2024/01/23 05:45:38;;;;;;;9.00;1.33;;;;;;;;;;5013162;28;20497;-84
2024/01/23 05:48:04;;;;;;;5.30;1.17;;;;;;;;;;5010912;28;20058;-83
2024/01/23 05:50:29;;;;;;;5.70;1.15;;;;;;;;;;5010650;28;20037;-84
2024/01/23 05:52:55;;;;;;;6.57;1.60;;;;;;;;;;5013869;28;20140;-86
2024/01/23 05:55:21;;;;;;;5.93;1.35;;;;;;;;;;5013772;28;20038;-83
2024/01/23 05:57:50;;;;;;;6.25;1.55;;;;;;;;;;5014128;28;20045;-83
2024/01/23 06:00:15;;;;;;;11.98;1.83;;;;;;;;;;5011207;28;20065;-83
2024/01/23 06:02:41;;;;;;;8.65;1.60;;;;;;;;;;5016050;28;20461;-83
2024/01/23 06:05:08;;;;;;;7.03;1.73;;;;;;;;;;5020874;28;20045;-83
2024/01/23 06:07:38;;;;;;;11.02;1.50;;;;;;;;;;5022302;28;20103;-83
2024/01/23 06:10:04;;;;;;;9.32;2.00;;;;;;;;;;5012796;28;20211;-83
2024/01/23 06:12:30;;;;;;;7.93;1.80;;;;;;;;;;5003606;28;20095;-82
2024/01/23 06:14:55;;;;;;;10.20;1.77;;;;;;;;;;4980229;28;20042;-83
2024/01/23 06:17:21;;;;;;;7.97;1.80;;;;;;;;;;4991841;28;20551;-83
2024/01/23 06:19:46;;;;;;;8.68;1.90;;;;;;;;;;4992760;28;20042;-83
2024/01/23 06:22:13;;;;;;;11.57;2.00;;;;;;;;;;4992276;28;20212;-82
2024/01/23 06:24:39;;;;;;;10.18;1.80;;;;;;;;;;4993063;28;20030;-83
2024/01/23 06:27:05;;;;;;;11.48;2.00;;;;;;;;;;4985147;28;20045;-82
2024/01/23 06:29:30;;;;;;;10.57;1.73;;;;;;;;;;5013644;28;20054;-82
2024/01/23 06:31:56;;;;;;;11.15;2.08;;;;;;;;;;5009648;28;20095;-82
2024/01/23 06:34:21;;;;;;;13.60;2.97;;;;;;;;;;5014386;28;20042;-82
2024/01/23 06:36:47;;;;;;;11.65;1.75;;;;;;;;;;5004740;28;20036;-81
2024/01/23 06:39:13;;;;;;;9.13;1.92;;;;;;;;;;4999807;28;20037;-81
2024/01/23 06:41:38;;;;;;;10.23;2.03;;;;;;;;;;5009466;28;20045;-81
2024/01/23 06:44:04;;;;;;;7.43;1.67;;;;;;;;;;5014616;28;20038;-80
2024/01/23 06:46:50;;;;;;;10.00;1.58;;;;;;;;;;4991810;28;20401;-82
2024/01/23 06:49:15;;;;;;;14.60;2.22;;;;;;;;;;5000054;28;20501;-81
2024/01/23 06:51:40;;;;;;;13.57;2.97;;;;;;;;;;5001092;28;20095;-81
2024/01/23 06:54:07;;;;;;;11.15;2.42;;;;;;;;;;5005072;28;20061;-81
2024/01/23 06:56:33;;;;;;;10.98;2.28;;;;;;;;;;4979888;28;20037;-81
2024/01/23 06:58:59;;;;;;;10.68;2.05;;;;;;;;;;5009341;28;20072;-82
2024/01/23 07:01:26;;;;;;;11.45;2.33;;;;;;;;;;5017859;28;20096;-80
2024/01/23 07:03:52;;;;;;;12.40;2.60;;;;;;;;;;5017187;28;20079;-82
2024/01/23 07:06:17;;;;;;;13.82;2.17;;;;;;;;;;5018718;28;20053;-81
2024/01/23 07:08:42;;;;;;;11.27;2.63;;;;;;;;;;4984189;28;20088;-82
2024/01/23 07:11:08;;;;;;;11.50;2.05;;;;;;;;;;5017418;28;20030;-81
2024/01/23 07:13:33;;;;;;;13.95;2.55;;;;;;;;;;5002401;28;20030;-82
2024/01/23 07:15:59;;;;;;;9.05;2.05;;;;;;;;;;5019184;28;20041;-82
2024/01/23 07:18:24;;;;;;;12.50;2.20;;;;;;;;;;5016726;28;20048;-81
2024/01/23 07:20:50;;;;;;;15.45;2.15;;;;;;;;;;5019001;28;20045;-81
2024/01/23 07:23:15;;;;;;;8.75;1.63;;;;;;;;;;5010306;28;20041;-81
2024/01/23 07:25:41;;;;;;;10.13;2.10;;;;;;;;;;5005466;28;20042;-81
2024/01/23 07:28:06;;;;;;;13.10;1.92;;;;;;;;;;4996708;28;20045;-81
2024/01/23 07:30:31;;;;;;;12.07;2.08;;;;;;;;;;4997641;28;20054;-82
2024/01/23 07:32:57;;;;;;;12.00;2.10;;;;;;;;;;4997420;28;20034;-82
2024/01/23 07:35:22;;;;;;;12.40;2.08;;;;;;;;;;4983932;28;20031;-81
2024/01/23 07:37:49;;;;;;;11.45;2.50;;;;;;;;;;4981985;28;20113;-81
2024/01/23 07:40:15;;;;;;;12.63;2.28;;;;;;;;;;5004099;28;20506;-81
2024/01/23 07:42:40;;;;;;;16.48;2.28;;;;;;;;;;4976322;28;20100;-80
2024/01/23 07:45:06;;;;;;;14.48;2.03;;;;;;;;;;4982353;28;20077;-81
2024/01/23 07:47:31;;;;;;;8.82;2.00;;;;;;;;;;4995093;28;20455;-81
2024/01/23 07:49:57;;;;;;;11.07;2.58;;;;;;;;;;4997196;28;20556;-81
2024/01/23 07:52:22;;;;;;;11.20;1.55;;;;;;;;;;4981439;28;20494;-81
2024/01/23 07:54:48;;;;;;;8.95;1.60;;;;;;;;;;5001327;28;20092;-81
2024/01/23 07:57:14;;;;;;;9.90;2.25;;;;;;;;;;4993943;28;20030;-81
2024/01/23 07:59:40;;;;;;;10.68;2.28;;;;;;;;;;4996137;28;20030;-81
2024/01/23 08:02:06;;;;;;;11.15;2.53;;;;;;;;;;4993792;28;20597;-80
2024/01/23 08:04:31;;;;;;;11.95;3.08;;;;;;;;;;4990800;28;20129;-82
2024/01/23 08:06:56;;;;;;;14.77;3.00;;;;;;;;;;4994363;28;20034;-84
2024/01/23 08:09:22;;;;;;;10.55;2.53;;;;;;;;;;4999184;28;20041;-81
2024/01/23 08:11:48;;;;;;;11.02;2.10;;;;;;;;;;4992751;28;20472;-83
2024/01/23 08:14:13;;;;;;;10.95;1.95;;;;;;;;;;5008646;28;20448;-83
2024/01/23 08:16:42;;;;;;;10.35;1.80;;;;;;;;;;5006883;28;20037;-82
2024/01/23 08:19:08;;;;;;;15.52;2.25;;;;;;;;;;4988797;28;20034;-82
2024/01/23 08:21:33;;;;;;;12.95;1.77;;;;;;;;;;4995653;28;20042;-83
2024/01/23 08:23:59;;;;;;;14.32;2.85;;;;;;;;;;4979566;28;20451;-81
2024/01/23 08:26:24;;;;;;;10.27;2.42;;;;;;;;;;4993253;28;20045;-81
2024/01/23 08:28:49;;;;;;;11.40;2.08;;;;;;;;;;4995049;28;20116;-81
2024/01/23 08:31:15;;;;;;;10.82;2.20;;;;;;;;;;4986199;28;20038;-82
2024/01/23 08:33:43;;;;;;;9.82;1.67;;;;;;;;;;4995796;28;20030;-82
2024/01/23 08:36:08;;;;;;;13.70;2.08;;;;;;;;;;5012653;28;20078;-82
2024/01/23 08:38:34;;;;;;;12.75;2.15;;;;;;;;;;5016208;28;20440;-82
2024/01/23 08:40:59;;;;;;;15.50;2.42;;;;;;;;;;5013213;28;20044;-82
2024/01/23 08:43:25;;;;;;;10.57;2.25;;;;;;;;;;5018035;28;24603;-83
2024/01/23 08:45:50;;;;;;;11.48;2.05;;;;;;;;;;5014012;28;20030;-83
2024/01/23 08:48:19;;;;;;;12.27;1.80;;;;;;;;;;5015401;28;20081;-82
2024/01/23 08:50:45;;;;;;;13.13;2.47;;;;;;;;;;5015259;28;20120;-83
2024/01/23 08:53:11;;;;;;;16.02;2.88;;;;;;;;;;5013436;28;20593;-82
2024/01/23 08:55:36;;;;;;;13.50;2.03;;;;;;;;;;5018255;28;20116;-83
2024/01/23 08:58:01;;;;;;;13.93;3.03;;;;;;;;;;5012180;28;20124;-82
2024/01/23 09:00:27;;;;;;;9.77;1.95;;;;;;;;;;5013229;28;20029;-80
2024/01/23 09:02:52;;;;;;;9.70;1.95;;;;;;;;;;5009633;28;20042;-82
2024/01/23 09:05:17;;;;;;;10.18;1.90;;;;;;;;;;4999682;28;20061;-82
2024/01/23 09:07:43;;;;;;;12.02;2.40;;;;;;;;;;5012077;28;20037;-83
2024/01/23 09:10:08;;;;;;;12.75;2.17;;;;;;;;;;5006867;28;20033;-83
2024/01/23 09:12:34;;;;;;;8.27;2.10;;;;;;;;;;5012243;28;20452;-82
2024/01/23 09:15:00;;;;;;;12.30;2.10;;;;;;;;;;5013266;28;20056;-83
2024/01/23 09:17:25;;;;;;;11.57;2.45;;;;;;;;;;4985574;28;20038;-81
2024/01/23 09:19:51;;;;;;;12.73;2.00;;;;;;;;;;4993861;28;20042;-82
2024/01/23 09:22:16;;;;;;;9.82;1.85;;;;;;;;;;4993162;28;20034;-82
2024/01/23 09:24:42;;;;;;;11.65;1.80;;;;;;;;;;4991309;28;20053;-82
2024/01/23 09:27:07;;;;;;;9.40;1.98;;;;;;;;;;4996695;28;20066;-81
2024/01/23 09:29:33;;;;;;;12.60;2.17;;;;;;;;;;4993842;28;20034;-83
2024/01/23 09:31:59;;;;;;;11.75;2.00;;;;;;;;;;4997265;28;20041;-82
2024/01/23 09:34:25;;;;;;;10.77;1.92;;;;;;;;;;4994220;28;20562;-83
2024/01/23 09:37:10;;;;;;;14.98;2.17;;;;;;;;;;4995298;28;20074;-82
2024/01/23 09:39:36;;;;;;;9.60;2.22;;;;;;;;;;4982771;28;20034;-82
2024/01/23 09:42:04;;;;;;;10.80;2.15;;;;;;;;;;4979939;28;20629;-81
2024/01/23 09:44:29;;;;;;;9.05;2.40;;;;;;;;;;4994935;28;20564;-82
2024/01/23 09:46:57;;;;;;;12.93;2.00;;;;;;;;;;4993168;28;20092;-82
2024/01/23 09:49:23;;;;;;;16.30;2.95;;;;;;;;;;4977822;28;20042;-81
2024/01/23 09:51:49;;;;;;;10.90;2.30;;;;;;;;;;4969750;28;20046;-82
2024/01/23 09:54:14;;;;;;;10.85;2.03;;;;;;;;;;4995094;28;20531;-82
2024/01/23 09:56:43;;;;;;;14.93;2.92;;;;;;;;;;4981229;28;20030;-82
2024/01/23 09:59:09;;;;;;;10.20;2.10;;;;;;;;;;4993290;28;20034;-82
2024/01/23 10:01:35;;;;;;;9.82;2.17;;;;;;;;;;4974044;28;20176;-82
2024/01/23 10:04:05;;;;;;;14.68;2.65;;;;;;;;;;4960749;28;20042;-83
2024/01/23 10:06:31;;;;;;;13.02;2.03;;;;;;;;;;4992755;28;20046;-83
2024/01/23 10:08:56;;;;;;;12.07;2.60;;;;;;;;;;4993532;28;20053;-83
2024/01/23 10:11:22;;;;;;;13.93;1.83;;;;;;;;;;4993874;28;20481;-83
2024/01/23 10:13:48;;;;;;;14.65;2.13;;;;;;;;;;4993126;28;20433;-82
2024/01/23 10:16:16;;;;;;;16.13;2.30;;;;;;;;;;4982660;28;20030;-83
2024/01/23 10:18:41;;;;;;;;;;;;;;;;;;4997252;28;20035;-83
2024/01/23 10:21:06;;;;;;;13.70;2.42;;;;;;;;;;5011054;28;19915;-82
2024/01/23 10:23:35;;;;;;;12.13;2.38;;;;;;;;;;4999466;28;20090;-83
2024/01/23 10:26:00;;;;;;;15.70;2.28;;;;;;;;;;4998426;28;20524;-82
2024/01/23 10:28:25;;;;;;;11.43;2.05;;;;;;;;;;4999877;28;20065;-82
2024/01/23 10:30:51;;;;;;;17.52;2.58;;;;;;;;;;5019089;28;20045;-83
2024/01/23 10:33:17;;;;;;;10.18;2.28;;;;;;;;;;5002622;28;20129;-83
2024/01/23 10:35:43;;;;;;;11.23;2.85;;;;;;;;;;5015067;28;20175;-81
2024/01/23 10:38:13;;;;;;;10.63;2.35;;;;;;;;;;5020907;28;20069;-81
2024/01/23 10:40:38;;;;;;;12.45;2.15;;;;;;;;;;5015220;28;20169;-81
2024/01/23 10:43:06;;;;;;;10.77;2.05;;;;;;;;;;5002544;28;20129;-81
2024/01/23 10:45:32;;;;;;;11.90;2.10;;;;;;;;;;5018791;28;20046;-82
2024/01/23 10:47:59;;;;;;;11.52;2.70;;;;;;;;;;5017213;28;20033;-82
2024/01/23 10:50:25;;;;;;;10.13;2.30;;;;;;;;;;5007905;28;20493;-81
2024/01/23 10:52:50;;;;;;;15.45;2.33;;;;;;;;;;5002491;28;20042;-81
2024/01/23 10:55:17;;;;;;;14.05;2.42;;;;;;;;;;5017828;28;20044;-81
2024/01/23 10:57:47;;;;;;;9.65;2.50;;;;;;;;;;5003606;28;20045;-81
2024/01/23 11:00:15;;;;;;;12.70;2.78;;;;;;;;;;5030976;28;20041;-83
2024/01/23 11:02:47;;;;;;;11.95;2.25;;;;;;;;;;5009049;28;20041;-82
2024/01/23 11:05:12;;;;;;;11.60;2.28;;;;;;;;;;5020897;28;20057;-82
2024/01/23 11:07:49;;;;;;;11.15;2.33;;;;;;;;;;5015907;28;20107;-82
2024/01/23 11:10:22;;;;;;;10.98;2.17;;;;;;;;;;5017160;28;20806;-82
2024/01/23 11:13:03;;;;;;;12.05;2.30;;;;;;;;;;5004048;28;20034;-81
2024/01/23 11:15:28;;;;;;;9.02;2.00;;;;;;;;;;5015540;28;20034;-82
2024/01/23 11:17:54;;;;;;;11.50;2.20;;;;;;;;;;5015514;28;20537;-85
2024/01/23 11:20:19;;;;;;;20.88;2.92;;;;;;;;;;5004726;28;20030;-84
2024/01/23 11:22:44;;;;;;;10.18;2.10;;;;;;;;;;4989692;28;20038;-82
2024/01/23 11:25:10;;;;;;;11.88;2.25;;;;;;;;;;5000648;28;20449;-82
2024/01/23 11:27:40;;;;;;;15.02;2.78;;;;;;;;;;4995411;28;20042;-81
2024/01/23 11:30:10;;;;;;;15.63;2.20;;;;;;;;;;5015372;28;20033;-82
2024/01/23 11:32:36;;;;;;;13.10;2.30;;;;;;;;;;5016149;28;20474;-83
2024/01/23 11:35:02;;;;;;;12.90;2.28;;;;;;;;;;5006905;28;20044;-82
2024/01/23 11:37:53;;;;;;;11.95;2.28;;;;;;;;;;5014000;28;20105;-82
2024/01/23 11:40:34;;;;;;;13.30;2.17;;;;;;;;;;5012438;28;20037;-82
2024/01/23 11:43:02;;;;;;;14.02;2.28;;;;;;;;;;5024034;28;20044;-82
2024/01/23 11:45:28;;;;;;;13.55;2.25;;;;;;;;;;5009292;28;20060;-82
2024/01/23 11:47:59;;;;;;;17.30;2.95;;;;;;;;;;5007001;28;20565;-82
2024/01/23 11:50:26;;;;;;;9.90;2.05;;;;;;;;;;5026774;28;20033;-83
2024/01/23 11:52:54;;;;;;;13.05;2.45;;;;;;;;;;5000650;28;20042;-84
2024/01/23 11:55:20;;;;;;;;;;;;;;;;;;5018992;28;20621;-82
2024/01/23 11:57:55;;;;;;;14.50;2.10;;;;;;;;;;5019931;28;19917;-82
2024/01/23 12:00:22;;;;;;;15.70;2.75;;;;;;;;;;5021155;28;20104;-82
2024/01/23 12:02:48;;;;;;;13.73;2.40;;;;;;;;;;5011733;28;20088;-82
2024/01/23 12:05:14;;;;;;;9.57;1.70;;;;;;;;;;5014031;28;20045;-82
2024/01/23 12:07:40;;;;;;;12.63;2.15;;;;;;;;;;5012625;28;20040;-83
2024/01/23 12:10:19;;;;;;;16.00;2.47;;;;;;;;;;5016084;28;20041;-82
2024/01/23 12:12:44;;;;;;;11.13;2.58;;;;;;;;;;5013761;28;20113;-82
2024/01/23 12:15:10;;;;;;;15.57;2.45;;;;;;;;;;5013046;28;20202;-83
2024/01/23 12:17:36;;;;;;;16.83;2.58;;;;;;;;;;5019320;28;20034;-84
2024/01/23 12:20:05;;;;;;;15.52;3.20;;;;;;;;;;5007812;28;20424;-84
2024/01/23 12:22:31;;;;;;;17.67;2.78;;;;;;;;;;5012738;28;20091;-82
2024/01/23 12:24:57;;;;;;;15.70;2.65;;;;;;;;;;5012603;28;20189;-82
2024/01/23 12:27:24;;;;;;;17.52;3.78;;;;;;;;;;5001401;28;20841;-81
2024/01/23 12:29:51;;;;;;;13.68;2.58;;;;;;;;;;5015109;28;20034;-82
2024/01/23 12:32:17;;;;;;;15.60;2.50;;;;;;;;;;4997712;28;20036;-81
2024/01/23 12:34:44;;;;;;;11.10;2.17;;;;;;;;;;4993556;28;20825;-81
2024/01/23 12:37:10;;;;;;;13.50;2.38;;;;;;;;;;5003368;28;20571;-82
2024/01/23 12:39:35;;;;;;;13.85;2.45;;;;;;;;;;5014497;28;20084;-83
2024/01/23 12:42:00;;;;;;;13.85;3.13;;;;;;;;;;5013570;28;20034;-82
2024/01/23 12:44:26;;;;;;;20.98;3.05;;;;;;;;;;5012977;28;20038;-82
2024/01/23 12:46:52;;;;;;;12.50;2.13;;;;;;;;;;5016797;28;20046;-82
2024/01/23 12:49:19;;;;;;;11.88;2.22;;;;;;;;;;5014047;28;20037;-84
2024/01/23 12:51:51;;;;;;;19.23;2.67;;;;;;;;;;4996716;28;20037;-82
2024/01/23 12:54:17;;;;;;;11.60;2.40;;;;;;;;;;4990068;28;20034;-82
2024/01/23 12:56:42;;;;;;;13.02;2.72;;;;;;;;;;5001494;28;20044;-82
2024/01/23 12:59:08;;;;;;;14.20;3.20;;;;;;;;;;5016397;28;20033;-81
2024/01/23 13:01:33;;;;;;;14.32;3.08;;;;;;;;;;5015598;28;20073;-83
2024/01/23 13:03:59;;;;;;;15.63;2.72;;;;;;;;;;5011810;28;20168;-82
2024/01/23 13:06:24;;;;;;;16.70;2.97;;;;;;;;;;5005509;28;20553;-84
2024/01/23 13:08:51;;;;;;;14.02;2.20;;;;;;;;;;4991369;28;20057;-82
2024/01/23 13:11:16;;;;;;;18.17;3.13;;;;;;;;;;4995716;28;20093;-84
2024/01/23 13:13:42;;;;;;;17.85;2.70;;;;;;;;;;4979142;28;20030;-82
2024/01/23 13:16:07;;;;;;;17.33;3.40;;;;;;;;;;4999254;28;20137;-81
2024/01/23 13:18:35;;;;;;;10.15;2.22;;;;;;;;;;4993078;28;20505;-82
2024/01/23 13:21:01;;;;;;;17.15;3.38;;;;;;;;;;4991830;28;20034;-82
2024/01/23 13:23:26;;;;;;;14.10;2.38;;;;;;;;;;4999073;28;20038;-81
2024/01/23 13:25:52;;;;;;;13.77;2.67;;;;;;;;;;5009320;28;20037;-82
2024/01/23 13:28:18;;;;;;;21.60;3.15;;;;;;;;;;5012279;28;20507;-82
2024/01/23 13:30:47;;;;;;;13.95;2.92;;;;;;;;;;5016126;28;20145;-81
2024/01/23 13:33:12;;;;;;;13.98;2.58;;;;;;;;;;5012694;28;20034;-83
2024/01/23 13:35:38;;;;;;;17.73;2.70;;;;;;;;;;5013010;28;20144;-81
2024/01/23 13:38:03;;;;;;;17.50;2.80;;;;;;;;;;5000272;28;20034;-82
2024/01/23 13:40:29;;;;;;;15.30;2.63;;;;;;;;;;5012277;28;20030;-81
2024/01/23 13:42:55;;;;;;;13.95;2.40;;;;;;;;;;5013084;28;20033;-81
2024/01/23 13:45:21;;;;;;;14.57;2.55;;;;;;;;;;5015713;28;20120;-82
2024/01/23 13:47:47;;;;;;;16.27;2.70;;;;;;;;;;5010216;28;20038;-82
2024/01/23 13:50:16;;;;;;;15.93;2.50;;;;;;;;;;5015556;28;20707;-82
2024/01/23 13:52:48;;;;;;;14.93;2.58;;;;;;;;;;5018054;28;20039;-81
2024/01/23 13:55:13;;;;;;;13.73;2.70;;;;;;;;;;5003502;28;20470;-82
2024/01/23 13:57:39;;;;;;;13.77;2.83;;;;;;;;;;5000047;28;20077;-82
2024/01/23 14:00:06;;;;;;;14.48;2.35;;;;;;;;;;5018149;28;20040;-81
2024/01/23 14:02:32;;;;;;;11.88;2.17;;;;;;;;;;5013820;28;20309;-82
2024/01/23 14:04:59;;;;;;;15.73;2.95;;;;;;;;;;5018437;28;20069;-82
2024/01/23 14:07:26;;;;;;;12.63;2.57;;;;;;;;;;5014620;28;20132;-81
2024/01/23 14:09:52;;;;;;;13.63;2.88;;;;;;;;;;5014093;28;20076;-82
2024/01/23 14:12:17;;;;;;;16.30;2.70;;;;;;;;;;5019776;28;20049;-83
2024/01/23 14:14:43;;;;;;;17.13;2.17;;;;;;;;;;5016623;28;20045;-82
2024/01/23 14:17:08;;;;;;;12.30;2.35;;;;;;;;;;5017478;28;20037;-82
2024/01/23 14:19:33;;;;;;;12.73;2.05;;;;;;;;;;5022271;28;20042;-82
2024/01/23 14:21:59;;;;;;;12.65;2.88;;;;;;;;;;4998530;28;20038;-83
2024/01/23 14:24:24;;;;;;;12.23;2.60;;;;;;;;;;5016674;28;20050;-81
2024/01/23 14:26:49;;;;;;;14.40;2.30;;;;;;;;;;5012061;28;20057;-81
2024/01/23 14:29:15;;;;;;;15.05;2.60;;;;;;;;;;5051248;23;20648;-82